aviador You're here:

KWLD Decoded Metar

WINFIELD/ARKANSA in KS, USA
Report Time2017-08-16 18:54:00
UTC Time2017-08-16 19:26:48
Flight Rules vfr VFR
Wind200° at 10 kt
W.Decomp.*RWY 17: 9.1 kt HW 4.1 kt RCW
RWY 13: 4.4 kt HW 9.0 kt RCW
W.Rank200° ranks 9
Current wind is below 200° avg. (11.3)
Visibility9999 m
Phenomena:N/A
Clouds:Scattered 043 Hf
Broken 050 Hf
Expected CloudBase > 2,800 ft AGL from Temp-Dew spread
Ceiling5,000 ft
Temp31°C (ISA +18)
Dew Point24°C (66% RH)
Heat Index36.4°C
QNH1010 hPa
Density Alt3,734 ft
Elevation1,148 ft
Report Wrong Elevation
Raw Report
KWLD 161854Z AUTO 20010KT 10SM SCT043 BKN050 31/24 A2984 RMK AO2
SLP092 T03060239=

Extra information for KWLD:More info

Metar Taf Metar & Taf Last 4 Metars F.Rules Stats Wind Profile Meteogram Temp Stats Airport Information Weather charts Add Link Nearby VenuesMetar ALERT Operation Metar Decoded Social comments

AIRNAV info for KWLD